Time;durP1;ratioP1;P1;durP2;ratioP2;P2;SDS_P1;SDS_P2;PMS_P1;PMS_P2;Temp;Humidity;BMP_temperature;BMP_pressure;BME280_temperature;BME280_humidity;BME280_pressure;Samples;Min_cycle;Max_cycle;Signal;HPM_P1;HPM_P2
2022/02/24 00:01:29;;;;;;;5.80;3.00;;;;;;;;;;5108913;28;20410;-78
2022/02/24 00:03:55;;;;;;;8.00;2.70;;;;;;;;;;5065890;27;20194;-77
2022/02/24 00:06:22;;;;;;;11.17;2.53;;;;;;;;;;4886478;28;20754;-78
2022/02/24 00:08:48;;;;;;;11.57;3.40;;;;;;;;;;4778627;29;20496;-79
2022/02/24 00:13:52;;;;;;;7.55;2.40;;;;;;;;;;5192757;27;20503;-78
2022/02/24 00:16:18;;;;;;;8.73;2.80;;;;;;;;;;5174762;27;20209;-78
2022/02/24 00:18:44;;;;;;;4.50;2.42;;;;;;;;;;5151785;27;20644;-78
2022/02/24 00:21:10;;;;;;;5.90;2.60;;;;;;;;;;5164462;27;20194;-78
2022/02/24 00:23:36;;;;;;;7.73;3.03;;;;;;;;;;5106088;27;20255;-78
2022/02/24 00:26:02;;;;;;;7.07;2.47;;;;;;;;;;5060953;28;20450;-77
2022/02/24 00:28:28;;;;;;;5.60;2.38;;;;;;;;;;5070761;28;20195;-77
2022/02/24 00:30:54;;;;;;;9.80;3.00;;;;;;;;;;5079907;28;20237;-78
2022/02/24 00:33:20;;;;;;;3.63;1.90;;;;;;;;;;5040477;28;20485;-79
2022/02/24 00:38:23;;;;;;;8.80;2.97;;;;;;;;;;5193046;27;20496;-78
2022/02/24 00:40:49;;;;;;;5.55;2.17;;;;;;;;;;5169852;27;20512;-78
2022/02/24 00:43:15;;;;;;;8.33;2.47;;;;;;;;;;5163412;27;20194;-78
2022/02/24 00:45:41;;;;;;;7.30;2.40;;;;;;;;;;5141839;27;20458;-79
2022/02/24 00:48:08;;;;;;;7.32;2.92;;;;;;;;;;5111299;27;20422;-78
2022/02/24 00:50:34;;;;;;;4.15;1.85;;;;;;;;;;5125052;27;20198;-79
2022/02/24 00:53:00;;;;;;;7.88;2.50;;;;;;;;;;5030633;28;20200;-78
2022/02/24 00:55:27;;;;;;;4.80;2.10;;;;;;;;;;5013628;28;20862;-78
2022/02/24 00:57:53;;;;;;;4.90;2.10;;;;;;;;;;4942185;28;20217;-78
2022/02/24 01:02:49;;;;;;;8.23;2.00;;;;;;;;;;5173370;27;20352;-79
2022/02/24 01:05:15;;;;;;;6.22;2.20;;;;;;;;;;5185815;27;20208;-78
2022/02/24 01:07:41;;;;;;;4.77;2.23;;;;;;;;;;5192107;27;20189;-78
2022/02/24 01:10:08;;;;;;;4.73;2.03;;;;;;;;;;5170897;27;20426;-78
2022/02/24 01:12:34;;;;;;;8.18;2.08;;;;;;;;;;5122788;27;20444;-78
2022/02/24 01:15:06;;;;;;;3.92;2.40;;;;;;;;;;5078283;28;20184;-77
2022/02/24 01:17:32;;;;;;;6.05;2.30;;;;;;;;;;5104661;28;20572;-78
2022/02/24 01:19:58;;;;;;;6.97;2.40;;;;;;;;;;5101874;28;21918;-78
2022/02/24 01:22:24;;;;;;;5.10;2.70;;;;;;;;;;5096635;28;20477;-78
2022/02/24 01:27:48;;;;;;;5.90;2.70;;;;;;;;;;5193058;27;20477;-79
2022/02/24 01:30:14;;;;;;;5.93;3.28;;;;;;;;;;5187966;27;20586;-79
2022/02/24 01:32:40;;;;;;;3.22;2.50;;;;;;;;;;5171498;27;20248;-79
2022/02/24 01:35:07;;;;;;;6.82;2.60;;;;;;;;;;5165974;27;20189;-78
2022/02/24 01:37:33;;;;;;;9.63;2.53;;;;;;;;;;5078514;28;20596;-78
2022/02/24 01:39:59;;;;;;;4.25;2.70;;;;;;;;;;5062283;28;20192;-79
2022/02/24 01:42:25;;;;;;;4.30;2.20;;;;;;;;;;5077443;28;20195;-79
2022/02/24 01:44:51;;;;;;;8.77;2.75;;;;;;;;;;5018412;28;20428;-78
2022/02/24 01:47:17;;;;;;;8.50;2.60;;;;;;;;;;4933968;28;20223;-78
2022/02/24 01:52:20;;;;;;;4.65;2.45;;;;;;;;;;5192463;27;20516;-79
2022/02/24 01:54:48;;;;;;;6.70;2.75;;;;;;;;;;5187260;27;20707;-79
2022/02/24 01:57:14;;;;;;;5.75;2.40;;;;;;;;;;5171386;27;20265;-78
2022/02/24 01:59:40;;;;;;;8.83;2.63;;;;;;;;;;5146065;27;20187;-79
2022/02/24 02:02:06;;;;;;;6.30;2.05;;;;;;;;;;5099092;28;20431;-78
2022/02/24 02:04:32;;;;;;;7.03;2.35;;;;;;;;;;5098688;28;20210;-77
2022/02/24 02:06:58;;;;;;;8.73;2.95;;;;;;;;;;5112976;28;20208;-79
2022/02/24 02:09:24;;;;;;;3.20;2.40;;;;;;;;;;5094985;28;20187;-78
2022/02/24 02:11:50;;;;;;;7.60;2.80;;;;;;;;;;5073093;28;20707;-78
2022/02/24 02:16:56;;;;;;;7.93;2.47;;;;;;;;;;5174663;27;20499;-79
2022/02/24 02:19:22;;;;;;;5.30;2.28;;;;;;;;;;5188073;27;20184;-80
2022/02/24 02:21:48;;;;;;;10.13;2.78;;;;;;;;;;5191571;27;20196;-78
2022/02/24 02:24:14;;;;;;;5.88;2.28;;;;;;;;;;5191485;27;20187;-78
2022/02/24 02:26:41;;;;;;;6.05;2.55;;;;;;;;;;5157972;27;20206;-79
2022/02/24 02:29:11;;;;;;;4.38;2.22;;;;;;;;;;5094316;28;20207;-78
2022/02/24 02:31:37;;;;;;;3.92;2.58;;;;;;;;;;5071901;28;20194;-79
2022/02/24 02:34:11;;;;;;;6.55;2.45;;;;;;;;;;5061881;28;20208;-77
2022/02/24 02:36:37;;;;;;;5.10;2.65;;;;;;;;;;5025875;28;20302;-78
2022/02/24 02:41:37;;;;;;;7.72;2.30;;;;;;;;;;5186628;27;20494;-79
2022/02/24 02:44:03;;;;;;;7.70;2.42;;;;;;;;;;5169108;27;20622;-78
2022/02/24 02:46:29;;;;;;;4.05;2.00;;;;;;;;;;5177466;27;20240;-79
2022/02/24 02:48:55;;;;;;;8.15;3.00;;;;;;;;;;5151020;27;20190;-79
2022/02/24 02:51:21;;;;;;;4.25;2.20;;;;;;;;;;5136099;27;20190;-79
2022/02/24 02:53:47;;;;;;;4.63;1.75;;;;;;;;;;5057615;28;20192;-78
2022/02/24 02:56:13;;;;;;;5.13;2.00;;;;;;;;;;5043143;28;20292;-78
2022/02/24 02:58:40;;;;;;;5.80;2.10;;;;;;;;;;4968457;28;20431;-79
2022/02/24 03:01:06;;;;;;;9.25;2.65;;;;;;;;;;4804359;29;20225;-77
2022/02/24 03:06:04;;;;;;;9.27;2.25;;;;;;;;;;5182123;27;20487;-79
2022/02/24 03:08:31;;;;;;;7.30;2.65;;;;;;;;;;5170951;27;20196;-78
2022/02/24 03:10:57;;;;;;;7.47;2.28;;;;;;;;;;5191367;27;20189;-79
2022/02/24 03:13:23;;;;;;;7.93;2.22;;;;;;;;;;5130708;27;20205;-78
2022/02/24 03:15:50;;;;;;;5.93;2.13;;;;;;;;;;5111742;27;20207;-79
2022/02/24 03:18:16;;;;;;;9.00;2.50;;;;;;;;;;5034770;28;20457;-78
2022/02/24 03:20:42;;;;;;;7.32;2.53;;;;;;;;;;5023854;28;20639;-78
2022/02/24 03:23:09;;;;;;;7.23;2.10;;;;;;;;;;5030098;28;20197;-80
2022/02/24 03:25:36;;;;;;;4.30;1.70;;;;;;;;;;4874977;29;20495;-78
2022/02/24 03:30:34;;;;;;;7.30;2.75;;;;;;;;;;5151239;27;20297;-79
2022/02/24 03:33:01;;;;;;;7.07;2.20;;;;;;;;;;5144517;27;20200;-78
2022/02/24 03:35:27;;;;;;;3.80;2.33;;;;;;;;;;5124195;28;20861;-79
2022/02/24 03:37:53;;;;;;;2.97;2.10;;;;;;;;;;5112996;27;20199;-78
2022/02/24 03:40:19;;;;;;;8.13;2.37;;;;;;;;;;5122623;27;20249;-79
2022/02/24 03:42:48;;;;;;;8.73;2.15;;;;;;;;;;5055160;28;20490;-78
2022/02/24 03:45:14;;;;;;;1.92;1.60;;;;;;;;;;5028271;28;20296;-78
2022/02/24 03:47:40;;;;;;;5.50;2.40;;;;;;;;;;4980762;28;20531;-78
2022/02/24 03:50:07;;;;;;;8.95;2.60;;;;;;;;;;4984354;28;20277;-79
2022/02/24 03:55:30;;;;;;;6.13;2.38;;;;;;;;;;5187134;27;21016;-79
2022/02/24 03:57:56;;;;;;;6.17;2.07;;;;;;;;;;5188265;27;20195;-77
2022/02/24 04:00:22;;;;;;;8.30;1.97;;;;;;;;;;5193185;27;20426;-78
2022/02/24 04:02:49;;;;;;;8.17;2.40;;;;;;;;;;5170943;27;20442;-80
2022/02/24 04:05:15;;;;;;;10.10;2.67;;;;;;;;;;5154880;27;20445;-79
2022/02/24 04:07:42;;;;;;;6.22;2.35;;;;;;;;;;5135818;27;20201;-78
2022/02/24 04:10:08;;;;;;;6.22;2.00;;;;;;;;;;5166300;27;20181;-79
2022/02/24 04:12:34;;;;;;;3.47;1.60;;;;;;;;;;5149810;27;20236;-78
2022/02/24 04:15:00;;;;;;;4.00;2.28;;;;;;;;;;5069404;28;20215;-79
2022/02/24 04:20:11;;;;;;;10.90;2.30;;;;;;;;;;5192915;27;20508;-79
2022/02/24 04:22:37;;;;;;;2.97;1.83;;;;;;;;;;5173114;27;20541;-79
2022/02/24 04:25:03;;;;;;;6.03;2.95;;;;;;;;;;5169361;27;20283;-78
2022/02/24 04:27:29;;;;;;;3.90;1.77;;;;;;;;;;5150322;27;20268;-78
2022/02/24 04:29:55;;;;;;;5.30;2.10;;;;;;;;;;5109075;28;20231;-78
2022/02/24 04:32:21;;;;;;;7.43;2.13;;;;;;;;;;5019111;28;20643;-80
2022/02/24 04:34:47;;;;;;;5.10;1.50;;;;;;;;;;4993086;28;20529;-80
2022/02/24 04:37:13;;;;;;;7.77;2.80;;;;;;;;;;5018497;28;20504;-77
2022/02/24 04:39:39;;;;;;;4.13;2.08;;;;;;;;;;5004040;28;20998;-78
2022/02/24 04:44:42;;;;;;;5.82;2.00;;;;;;;;;;5193244;27;20571;-79
2022/02/24 04:47:08;;;;;;;3.10;1.37;;;;;;;;;;5159409;27;20212;-79
2022/02/24 04:49:34;;;;;;;9.67;2.70;;;;;;;;;;5169179;27;20516;-78
2022/02/24 04:52:00;;;;;;;6.63;2.65;;;;;;;;;;5170630;27;20826;-78
2022/02/24 04:54:26;;;;;;;5.65;2.28;;;;;;;;;;5109250;27;20575;-78
2022/02/24 04:56:52;;;;;;;7.22;3.33;;;;;;;;;;5037716;28;20218;-78
2022/02/24 04:59:18;;;;;;;2.80;1.90;;;;;;;;;;4990443;28;20258;-78
2022/02/24 05:01:44;;;;;;;4.67;1.90;;;;;;;;;;4972495;28;20478;-79
2022/02/24 05:04:10;;;;;;;4.10;2.17;;;;;;;;;;4908649;29;20887;-79
2022/02/24 05:09:08;;;;;;;8.63;2.10;;;;;;;;;;5193118;27;20826;-79
2022/02/24 05:11:34;;;;;;;5.30;2.03;;;;;;;;;;5187922;27;20215;-79
2022/02/24 05:14:00;;;;;;;5.70;1.63;;;;;;;;;;5156361;27;20215;-78
2022/02/24 05:16:26;;;;;;;5.70;2.13;;;;;;;;;;5156318;27;20217;-79
2022/02/24 05:18:52;;;;;;;8.20;2.40;;;;;;;;;;5116903;28;20471;-79
2022/02/24 05:21:18;;;;;;;5.07;2.17;;;;;;;;;;5000038;28;20442;-79
2022/02/24 05:23:44;;;;;;;5.47;2.22;;;;;;;;;;5013161;28;20451;-78
2022/02/24 05:26:10;;;;;;;8.20;2.13;;;;;;;;;;5006309;28;20211;-77
2022/02/24 05:28:36;;;;;;;6.27;1.77;;;;;;;;;;4948086;28;20316;-78
2022/02/24 05:33:35;;;;;;;3.40;1.55;;;;;;;;;;5182589;27;20300;-79
2022/02/24 05:36:01;;;;;;;3.83;2.30;;;;;;;;;;5160166;27;20217;-78
2022/02/24 05:38:27;;;;;;;4.70;2.05;;;;;;;;;;5171206;27;20209;-78
2022/02/24 05:40:53;;;;;;;5.17;2.10;;;;;;;;;;5170650;27;20634;-76
2022/02/24 05:43:19;;;;;;;4.40;2.43;;;;;;;;;;5106966;28;20434;-76
2022/02/24 05:45:45;;;;;;;9.80;2.30;;;;;;;;;;5101493;28;20449;-77
2022/02/24 05:48:12;;;;;;;4.10;2.42;;;;;;;;;;5115058;27;20451;-77
2022/02/24 05:50:38;;;;;;;2.75;1.52;;;;;;;;;;5089179;28;20275;-76
2022/02/24 05:53:04;;;;;;;8.80;2.30;;;;;;;;;;5016596;28;20228;-77
2022/02/24 05:58:01;;;;;;;6.75;2.42;;;;;;;;;;5193348;27;20282;-78
2022/02/24 06:00:27;;;;;;;7.33;2.30;;;;;;;;;;5187952;27;20191;-79
2022/02/24 06:02:53;;;;;;;8.13;2.42;;;;;;;;;;5146298;27;20466;-79
2022/02/24 06:05:19;;;;;;;6.88;2.30;;;;;;;;;;5116526;28;20219;-79
2022/02/24 06:07:45;;;;;;;7.17;3.03;;;;;;;;;;5062390;28;20201;-78
2022/02/24 06:10:12;;;;;;;6.03;2.30;;;;;;;;;;5050433;28;20427;-78
2022/02/24 06:12:38;;;;;;;3.90;1.95;;;;;;;;;;5059410;28;20671;-79
2022/02/24 06:15:05;;;;;;;6.60;2.40;;;;;;;;;;5057993;28;20200;-78
2022/02/24 06:17:31;;;;;;;7.63;2.50;;;;;;;;;;4908451;29;20301;-78
2022/02/24 06:22:37;;;;;;;7.75;2.28;;;;;;;;;;5191935;27;20485;-79
2022/02/24 06:25:03;;;;;;;6.68;2.70;;;;;;;;;;5168870;27;20227;-78
2022/02/24 06:27:29;;;;;;;3.35;2.17;;;;;;;;;;5171202;27;20228;-79
2022/02/24 06:29:55;;;;;;;3.20;2.13;;;;;;;;;;5146925;27;20242;-78
2022/02/24 06:32:21;;;;;;;6.65;2.70;;;;;;;;;;5126202;27;20520;-78
2022/02/24 06:34:47;;;;;;;5.50;1.57;;;;;;;;;;5123528;28;20190;-79
2022/02/24 06:37:13;;;;;;;6.15;2.05;;;;;;;;;;5121838;28;20467;-78
2022/02/24 06:39:39;;;;;;;4.47;1.93;;;;;;;;;;5050156;28;20638;-79
2022/02/24 06:42:05;;;;;;;5.60;2.23;;;;;;;;;;4997937;28;20505;-78
2022/02/24 06:47:21;;;;;;;7.82;2.13;;;;;;;;;;5193089;27;20833;-79
2022/02/24 06:49:46;;;;;;;6.00;2.30;;;;;;;;;;5187942;27;20589;-78
2022/02/24 06:52:12;;;;;;;3.22;1.90;;;;;;;;;;5192141;27;20275;-78
2022/02/24 06:54:38;;;;;;;5.30;1.73;;;;;;;;;;5178592;27;20276;-78
2022/02/24 06:57:06;;;;;;;8.50;1.80;;;;;;;;;;5105951;28;20465;-79
2022/02/24 06:59:33;;;;;;;4.28;2.15;;;;;;;;;;5140389;27;20434;-79
2022/02/24 07:01:59;;;;;;;4.72;1.75;;;;;;;;;;5139667;27;20194;-79
2022/02/24 07:04:25;;;;;;;4.53;1.70;;;;;;;;;;5036799;28;20289;-78
2022/02/24 07:06:51;;;;;;;4.83;1.87;;;;;;;;;;4993212;28;20306;-78
2022/02/24 07:11:49;;;;;;;2.60;2.03;;;;;;;;;;5193084;27;20310;-80
2022/02/24 07:14:15;;;;;;;3.67;2.17;;;;;;;;;;5187261;27;20640;-78
2022/02/24 07:16:41;;;;;;;7.68;2.20;;;;;;;;;;5175775;27;20627;-79
2022/02/24 07:19:07;;;;;;;4.50;1.93;;;;;;;;;;5155340;27;20186;-79
2022/02/24 07:21:33;;;;;;;6.00;2.03;;;;;;;;;;5120421;28;20432;-77
2022/02/24 07:23:59;;;;;;;5.97;1.90;;;;;;;;;;5105875;28;20206;-78
2022/02/24 07:26:25;;;;;;;3.95;1.80;;;;;;;;;;5127222;27;20539;-80
2022/02/24 07:28:51;;;;;;;4.55;1.70;;;;;;;;;;5083619;28;20185;-76
2022/02/24 07:31:17;;;;;;;3.03;1.75;;;;;;;;;;5021164;28;20309;-77
2022/02/24 07:36:30;;;;;;;3.55;1.73;;;;;;;;;;5157197;27;20510;-79
2022/02/24 07:38:56;;;;;;;6.20;1.77;;;;;;;;;;5149855;27;20187;-79
2022/02/24 07:41:22;;;;;;;6.80;2.42;;;;;;;;;;5169979;27;20510;-78
2022/02/24 07:43:48;;;;;;;5.53;1.70;;;;;;;;;;5170635;27;20192;-78
2022/02/24 07:46:14;;;;;;;7.67;2.10;;;;;;;;;;5138504;27;20440;-79
2022/02/24 07:48:40;;;;;;;4.43;1.77;;;;;;;;;;5139509;27;20465;-79
2022/02/24 07:51:06;;;;;;;3.37;1.77;;;;;;;;;;5102702;28;20449;-76
2022/02/24 07:53:31;;;;;;;4.90;2.20;;;;;;;;;;5008819;28;20451;-79
2022/02/24 07:55:57;;;;;;;6.97;2.00;;;;;;;;;;4956448;28;20819;-79
2022/02/24 08:01:26;;;;;;;8.02;2.25;;;;;;;;;;5192910;27;21019;-77
2022/02/24 08:03:53;;;;;;;6.87;1.97;;;;;;;;;;5187808;27;20184;-77
2022/02/24 08:06:19;;;;;;;6.97;1.90;;;;;;;;;;5178691;27;20457;-78
2022/02/24 08:08:46;;;;;;;9.93;2.83;;;;;;;;;;5169499;27;20193;-80
2022/02/24 08:11:12;;;;;;;4.90;2.22;;;;;;;;;;5139351;27;20484;-78
2022/02/24 08:13:38;;;;;;;2.90;1.70;;;;;;;;;;5091955;28;20204;-80
2022/02/24 08:16:04;;;;;;;4.63;1.83;;;;;;;;;;5090096;28;20573;-75
2022/02/24 08:18:30;;;;;;;3.20;1.85;;;;;;;;;;5081277;28;20817;-76
2022/02/24 08:20:56;;;;;;;5.80;1.83;;;;;;;;;;4996643;28;20220;-77
2022/02/24 08:25:52;;;;;;;4.60;1.80;;;;;;;;;;5177360;27;20495;-80
2022/02/24 08:28:18;;;;;;;2.60;1.80;;;;;;;;;;5175465;27;20176;-78
2022/02/24 08:30:46;;;;;;;7.03;2.33;;;;;;;;;;5185601;27;20443;-79
2022/02/24 08:33:12;;;;;;;6.00;1.75;;;;;;;;;;5154679;27;20446;-79
2022/02/24 08:35:38;;;;;;;7.25;1.75;;;;;;;;;;5116039;27;20566;-79
2022/02/24 08:38:05;;;;;;;3.05;1.33;;;;;;;;;;5064716;28;20193;-80
2022/02/24 08:40:32;;;;;;;4.63;1.98;;;;;;;;;;5005417;28;20194;-81
2022/02/24 08:42:59;;;;;;;10.68;2.50;;;;;;;;;;4973584;28;20198;-79
2022/02/24 08:45:25;;;;;;;6.47;1.90;;;;;;;;;;4832716;28;20228;-77
2022/02/24 08:50:05;;;;;;;3.13;1.90;;;;;;;;;;5187017;27;20513;-78
2022/02/24 08:52:31;;;;;;;4.85;1.75;;;;;;;;;;5161746;27;20225;-76
2022/02/24 08:54:57;;;;;;;4.32;1.98;;;;;;;;;;5187613;27;20596;-78
2022/02/24 08:57:23;;;;;;;5.63;2.33;;;;;;;;;;5150614;27;20193;-79
2022/02/24 08:59:49;;;;;;;2.50;1.93;;;;;;;;;;5157837;27;20478;-79
2022/02/24 09:02:15;;;;;;;4.95;1.95;;;;;;;;;;5098066;28;20607;-80
2022/02/24 09:04:41;;;;;;;4.70;2.07;;;;;;;;;;5063391;28;20278;-79
2022/02/24 09:07:07;;;;;;;7.90;2.07;;;;;;;;;;5003941;28;20464;-80
2022/02/24 09:09:33;;;;;;;4.67;1.87;;;;;;;;;;4905998;29;20556;-81
2022/02/24 09:14:30;;;;;;;8.75;2.83;;;;;;;;;;5193413;27;20472;-80
2022/02/24 09:16:56;;;;;;;6.87;2.33;;;;;;;;;;5168142;27;20205;-79
2022/02/24 09:19:22;;;;;;;4.30;2.17;;;;;;;;;;5132104;27;20427;-81
2022/02/24 09:21:49;;;;;;;7.30;2.30;;;;;;;;;;5137731;27;20233;-79
2022/02/24 09:24:16;;;;;;;6.88;3.05;;;;;;;;;;5068339;28;20443;-81
2022/02/24 09:26:42;;;;;;;4.20;2.35;;;;;;;;;;4940579;28;20566;-80
2022/02/24 09:29:08;;;;;;;5.25;2.35;;;;;;;;;;4890499;29;20516;-80
2022/02/24 09:31:35;;;;;;;6.07;2.53;;;;;;;;;;4799743;29;20279;-79
2022/02/24 09:34:01;;;;;;;6.53;2.53;;;;;;;;;;4509217;31;20233;-80
2022/02/24 09:38:16;;;;;;;5.25;2.53;;;;;;;;;;5192949;27;20481;-79
2022/02/24 09:40:45;;;;;;;9.48;3.50;;;;;;;;;;5163784;27;20238;-76
2022/02/24 09:43:11;;;;;;;6.45;3.05;;;;;;;;;;5152100;27;20196;-77
2022/02/24 09:45:39;;;;;;;13.15;3.50;;;;;;;;;;5127172;27;20622;-75
2022/02/24 09:48:06;;;;;;;4.93;3.47;;;;;;;;;;5084304;27;20198;-78
2022/02/24 09:50:33;;;;;;;9.13;2.75;;;;;;;;;;5044392;28;20182;-77
2022/02/24 09:53:00;;;;;;;9.82;3.10;;;;;;;;;;4974989;28;20721;-79
2022/02/24 09:55:25;;;;;;;9.75;2.95;;;;;;;;;;4847284;29;20228;-78
2022/02/24 09:57:52;;;;;;;12.30;2.60;;;;;;;;;;4701315;29;20235;-79
2022/02/24 10:02:15;;;;;;;7.28;4.85;;;;;;;;;;5192890;27;20488;-79
2022/02/24 10:05:00;;;;;;;10.45;3.15;;;;;;;;;;5169278;27;20196;-78
2022/02/24 10:07:26;;;;;;;13.38;2.92;;;;;;;;;;5134645;27;20249;-79
2022/02/24 10:09:52;;;;;;;9.88;2.38;;;;;;;;;;5082374;28;20187;-81
2022/02/24 10:12:18;;;;;;;6.47;2.17;;;;;;;;;;5046701;28;20198;-80
2022/02/24 10:14:44;;;;;;;7.07;2.80;;;;;;;;;;5038215;28;20430;-81
2022/02/24 10:17:10;;;;;;;5.33;2.37;;;;;;;;;;5063409;28;20500;-80
2022/02/24 10:19:37;;;;;;;7.43;2.42;;;;;;;;;;5019121;28;20458;-79
2022/02/24 10:22:16;;;;;;;9.23;2.75;;;;;;;;;;4948869;28;20220;-78
2022/02/24 10:27:16;;;;;;;8.48;3.08;;;;;;;;;;5172848;27;20491;-80
2022/02/24 10:29:52;;;;;;;9.30;2.90;;;;;;;;;;5165677;27;20184;-80
2022/02/24 10:32:30;;;;;;;6.85;3.05;;;;;;;;;;5135485;27;20200;-81
2022/02/24 10:35:16;;;;;;;4.75;3.28;;;;;;;;;;5153451;27;20553;-80
2022/02/24 10:37:42;;;;;;;6.28;3.30;;;;;;;;;;5086052;28;20211;-80
2022/02/24 10:40:08;;;;;;;6.53;3.20;;;;;;;;;;5056077;28;20661;-78
2022/02/24 10:42:34;;;;;;;6.97;3.42;;;;;;;;;;5059961;28;20915;-79
2022/02/24 10:45:07;;;;;;;6.57;3.55;;;;;;;;;;5078542;28;20614;-78
2022/02/24 10:47:34;;;;;;;7.43;3.22;;;;;;;;;;5094820;28;20205;-80
2022/02/24 10:52:36;;;;;;;6.20;4.40;;;;;;;;;;5192588;27;20698;-80
2022/02/24 10:55:07;;;;;;;3.90;2.90;;;;;;;;;;5185702;27;20662;-80
2022/02/24 10:57:35;;;;;;;11.27;3.72;;;;;;;;;;5171053;27;20268;-79
2022/02/24 11:00:01;;;;;;;5.55;3.30;;;;;;;;;;5145776;27;20664;-80
2022/02/24 11:02:27;;;;;;;5.68;2.95;;;;;;;;;;5112239;28;20250;-79
2022/02/24 11:04:55;;;;;;;8.95;3.40;;;;;;;;;;5066966;28;20185;-79
2022/02/24 11:07:22;;;;;;;5.00;3.35;;;;;;;;;;5023390;28;20217;-79
2022/02/24 11:09:48;;;;;;;3.83;2.65;;;;;;;;;;5032343;28;20512;-78
2022/02/24 11:12:15;;;;;;;5.35;2.50;;;;;;;;;;4944462;28;20223;-78
2022/02/24 11:17:16;;;;;;;14.88;3.20;;;;;;;;;;5171964;27;20481;-80
2022/02/24 11:19:46;;;;;;;5.87;2.90;;;;;;;;;;5187833;27;20628;-80
2022/02/24 11:22:12;;;;;;;2.92;2.67;;;;;;;;;;5192100;27;20481;-79
2022/02/24 11:24:39;;;;;;;4.10;2.75;;;;;;;;;;5150735;27;20224;-79
2022/02/24 11:27:21;;;;;;;4.03;2.05;;;;;;;;;;5107350;28;20241;-80
2022/02/24 11:30:08;;;;;;;4.18;2.42;;;;;;;;;;5042641;28;20276;-79
2022/02/24 11:32:34;;;;;;;5.88;2.45;;;;;;;;;;4962613;28;20199;-80
2022/02/24 11:35:06;;;;;;;6.85;2.55;;;;;;;;;;4978994;28;20194;-78
2022/02/24 11:37:37;;;;;;;6.20;2.58;;;;;;;;;;4850099;29;20206;-79
2022/02/24 11:43:21;;;;;;;3.60;2.85;;;;;;;;;;5192988;27;20480;-79
2022/02/24 11:45:50;;;;;;;4.65;2.58;;;;;;;;;;5162224;27;20211;-80
2022/02/24 11:48:20;;;;;;;6.13;2.70;;;;;;;;;;5171093;27;20188;-78
2022/02/24 11:50:56;;;;;;;6.18;2.38;;;;;;;;;;5170364;27;20196;-80
2022/02/24 11:53:28;;;;;;;2.63;2.13;;;;;;;;;;5145942;27;20186;-79
2022/02/24 11:55:55;;;;;;;5.43;2.70;;;;;;;;;;5125735;28;20262;-79
2022/02/24 11:58:43;;;;;;;5.18;2.60;;;;;;;;;;5109704;28;20683;-79
2022/02/24 12:01:10;;;;;;;5.93;2.90;;;;;;;;;;4994830;28;20221;-78
2022/02/24 12:03:45;;;;;;;4.95;1.70;;;;;;;;;;4877565;29;20207;-79
2022/02/24 12:08:06;;;;;;;4.65;1.90;;;;;;;;;;5193216;27;20475;-80
2022/02/24 12:10:43;;;;;;;7.63;2.00;;;;;;;;;;5171844;27;20188;-79
2022/02/24 12:13:25;;;;;;;3.20;2.03;;;;;;;;;;5135683;27;20183;-78
2022/02/24 12:16:09;;;;;;;4.32;1.88;;;;;;;;;;5083691;28;20209;-77
2022/02/24 12:18:39;;;;;;;5.75;2.10;;;;;;;;;;5006741;28;20230;-78
2022/02/24 12:21:23;;;;;;;6.88;2.30;;;;;;;;;;5007844;28;20244;-78
2022/02/24 12:23:49;;;;;;;2.72;1.60;;;;;;;;;;4985811;28;20205;-80
2022/02/24 12:26:16;;;;;;;4.50;1.60;;;;;;;;;;4878195;29;20319;-77
2022/02/24 12:28:42;;;;;;;1.90;1.50;;;;;;;;;;4775345;29;20431;-78
2022/02/24 12:33:10;;;;;;;5.32;2.05;;;;;;;;;;5193108;27;20477;-80
2022/02/24 12:35:43;;;;;;;2.85;1.30;;;;;;;;;;5162925;27;20208;-79
2022/02/24 12:38:17;;;;;;;2.88;1.08;;;;;;;;;;5132961;27;20255;-79
2022/02/24 12:40:45;;;;;;;1.27;1.00;;;;;;;;;;5170398;27;20537;-80
2022/02/24 12:43:12;;;;;;;1.10;1.00;;;;;;;;;;5128324;27;20667;-81
2022/02/24 12:45:39;;;;;;;1.90;1.20;;;;;;;;;;5075867;28;20220;-81
2022/02/24 12:48:07;;;;;;;1.30;0.70;;;;;;;;;;5083910;28;20245;-80
2022/02/24 12:50:36;;;;;;;1.00;0.70;;;;;;;;;;5006075;28;20544;-80
2022/02/24 12:53:10;;;;;;;1.08;0.80;;;;;;;;;;4939074;28;20255;-79
2022/02/24 12:57:44;;;;;;;2.00;0.90;;;;;;;;;;5192954;27;20999;-80
2022/02/24 13:00:11;;;;;;;1.80;0.82;;;;;;;;;;5187669;27;20197;-78
2022/02/24 13:02:38;;;;;;;3.67;0.90;;;;;;;;;;5192228;27;20211;-79
2022/02/24 13:05:05;;;;;;;3.15;1.00;;;;;;;;;;5153379;27;20188;-81
2022/02/24 13:10:35;;;;;;;2.25;1.13;;;;;;;;;;4925922;28;20213;-78
2022/02/24 13:13:02;;;;;;;2.55;0.90;;;;;;;;;;4817427;29;20287;-80
2022/02/24 13:15:29;;;;;;;1.50;0.90;;;;;;;;;;4686016;30;20220;-80
2022/02/24 13:20:33;;;;;;;2.20;1.10;;;;;;;;;;5193033;27;20496;-80
2022/02/24 13:22:59;;;;;;;3.97;1.00;;;;;;;;;;5170982;27;20199;-78
2022/02/24 13:25:29;;;;;;;1.55;1.15;;;;;;;;;;5186741;27;20209;-79
2022/02/24 13:27:55;;;;;;;2.80;1.42;;;;;;;;;;5170271;27;20189;-79
2022/02/24 13:30:23;;;;;;;7.63;1.20;;;;;;;;;;5152330;27;20698;-80
2022/02/24 13:32:49;;;;;;;2.92;1.20;;;;;;;;;;5152056;27;20637;-78
2022/02/24 13:35:15;;;;;;;7.20;2.13;;;;;;;;;;5158290;27;20222;-76
2022/02/24 13:37:43;;;;;;;1.63;1.13;;;;;;;;;;5108848;27;20196;-76
2022/02/24 13:40:14;;;;;;;4.40;1.00;;;;;;;;;;5016521;28;20223;-79
2022/02/24 13:45:44;;;;;;;2.00;1.20;;;;;;;;;;5185333;27;20509;-81
2022/02/24 13:48:11;;;;;;;1.40;0.90;;;;;;;;;;5181202;27;20467;-80
2022/02/24 13:50:37;;;;;;;1.00;0.80;;;;;;;;;;5172183;27;20430;-78
2022/02/24 13:53:03;;;;;;;3.47;0.80;;;;;;;;;;5191321;27;20478;-78
2022/02/24 13:55:31;;;;;;;1.97;0.80;;;;;;;;;;5177695;27;20460;-76
2022/02/24 13:57:58;;;;;;;1.33;0.90;;;;;;;;;;5150885;27;20546;-79
2022/02/24 14:00:25;;;;;;;1.20;0.70;;;;;;;;;;5141797;27;20427;-79
2022/02/24 14:02:52;;;;;;;1.53;0.77;;;;;;;;;;5099695;28;20425;-80
2022/02/24 14:05:18;;;;;;;2.17;0.70;;;;;;;;;;5033297;28;20485;-80
2022/02/24 14:10:01;;;;;;;1.90;0.80;;;;;;;;;;5192219;27;20480;-79
2022/02/24 14:12:27;;;;;;;2.70;1.30;;;;;;;;;;5167431;27;20612;-80
2022/02/24 14:14:53;;;;;;;2.47;1.23;;;;;;;;;;5169115;27;20430;-80
2022/02/24 14:17:19;;;;;;;1.53;1.00;;;;;;;;;;5148427;27;20419;-80
2022/02/24 14:19:45;;;;;;;1.10;0.87;;;;;;;;;;5154882;27;20783;-79
2022/02/24 14:22:11;;;;;;;2.20;0.80;;;;;;;;;;5123083;28;20433;-79
2022/02/24 14:24:37;;;;;;;2.50;1.00;;;;;;;;;;5144928;27;20430;-81
2022/02/24 14:27:03;;;;;;;3.10;1.20;;;;;;;;;;4972582;27;20450;-80
2022/02/24 14:29:29;;;;;;;2.00;1.00;;;;;;;;;;4712660;29;20504;-81
2022/02/24 14:33:54;;;;;;;3.63;0.95;;;;;;;;;;5134712;27;20524;-79
2022/02/24 14:36:20;;;;;;;1.02;0.80;;;;;;;;;;5145711;27;20616;-79
2022/02/24 14:38:47;;;;;;;2.08;0.85;;;;;;;;;;5150361;27;20692;-80
2022/02/24 14:41:13;;;;;;;1.45;0.80;;;;;;;;;;5149679;27;20186;-81
2022/02/24 14:43:39;;;;;;;1.27;0.60;;;;;;;;;;5068267;28;20199;-79
2022/02/24 14:46:07;;;;;;;2.28;0.80;;;;;;;;;;4892690;28;20220;-78
2022/02/24 14:48:34;;;;;;;3.60;0.98;;;;;;;;;;4743541;29;21007;-80
2022/02/24 14:51:01;;;;;;;1.58;0.95;;;;;;;;;;4522424;30;20231;-80
2022/02/24 14:55:36;;;;;;;1.73;0.90;;;;;;;;;;5145615;27;20504;-80
2022/02/24 14:58:03;;;;;;;3.35;1.05;;;;;;;;;;5115545;27;20214;-77
2022/02/24 15:00:30;;;;;;;2.85;1.00;;;;;;;;;;5116214;27;20701;-81
2022/02/24 15:02:57;;;;;;;2.10;0.90;;;;;;;;;;5103586;28;20238;-78
2022/02/24 15:05:28;;;;;;;3.28;1.10;;;;;;;;;;5068586;28;20224;-80
2022/02/24 15:07:54;;;;;;;1.80;0.80;;;;;;;;;;4970368;28;20191;-79
2022/02/24 15:10:20;;;;;;;1.67;0.90;;;;;;;;;;4931982;29;20194;-80
2022/02/24 15:12:46;;;;;;;3.05;0.90;;;;;;;;;;4887368;29;20444;-80
2022/02/24 15:15:12;;;;;;;2.65;0.77;;;;;;;;;;4838803;29;20232;-81
2022/02/24 15:19:39;;;;;;;2.35;0.60;;;;;;;;;;5193280;27;20287;-85
2022/02/24 15:22:06;;;;;;;0.80;0.60;;;;;;;;;;5188271;27;20241;-85
2022/02/24 15:24:32;;;;;;;1.33;0.60;;;;;;;;;;5172882;27;20191;-86
2022/02/24 15:26:58;;;;;;;1.02;0.82;;;;;;;;;;5126985;27;20245;-87
2022/02/24 15:29:29;;;;;;;2.30;0.60;;;;;;;;;;5068068;28;20197;-86
2022/02/24 15:32:16;;;;;;;1.88;0.70;;;;;;;;;;4999687;28;20205;-86
2022/02/24 15:42:33;;;;;;;1.23;0.90;;;;;;;;;;4203705;26;20238;-78
2022/02/24 15:44:59;;;;;;;2.78;0.93;;;;;;;;;;4864556;29;20270;-79
2022/02/24 15:47:25;;;;;;;2.30;0.90;;;;;;;;;;4788055;29;20213;-77
2022/02/24 15:50:53;;;;;;;2.88;0.68;;;;;;;;;;5192742;27;20503;-83
2022/02/24 15:53:19;;;;;;;0.80;0.60;;;;;;;;;;5171503;27;20641;-81
2022/02/24 15:55:46;;;;;;;4.20;0.80;;;;;;;;;;5183537;27;20216;-81
2022/02/24 15:58:12;;;;;;;3.10;0.98;;;;;;;;;;5150931;27;20200;-81
2022/02/24 16:00:38;;;;;;;1.35;0.77;;;;;;;;;;5155399;27;20194;-81
2022/02/24 16:03:05;;;;;;;3.28;1.30;;;;;;;;;;5124141;27;20241;-84
2022/02/24 16:05:32;;;;;;;1.35;0.80;;;;;;;;;;5067284;28;20227;-79
2022/02/24 16:07:59;;;;;;;1.23;0.80;;;;;;;;;;5033755;28;20556;-82
2022/02/24 16:10:25;;;;;;;1.02;0.85;;;;;;;;;;4930016;28;20317;-81
2022/02/24 16:12:51;;;;;;;1.10;0.80;;;;;;;;;;4842217;29;20259;-81
2022/02/24 16:16:34;;;;;;;1.30;0.73;;;;;;;;;;5136210;27;20847;-83
2022/02/24 16:19:00;;;;;;;2.08;1.40;;;;;;;;;;5146008;27;20185;-82
2022/02/24 16:21:26;;;;;;;1.08;0.80;;;;;;;;;;5130224;27;20273;-81
2022/02/24 16:23:52;;;;;;;1.25;0.70;;;;;;;;;;5096297;28;20539;-80
2022/02/24 16:26:18;;;;;;;1.52;1.00;;;;;;;;;;5068399;28;20300;-80
2022/02/24 16:28:44;;;;;;;1.55;1.10;;;;;;;;;;5004424;28;20594;-79
2022/02/24 16:31:44;;;;;;;1.55;0.98;;;;;;;;;;4960486;28;20205;-80